Pagina principale
METAR-TAF:

METAR-TAF

Aeroporti :

Aeroporto di Saarbrücken

Saarbrücken, Germania

latitudine: 49-13N, longitudine: 007-07E, altezza: 322 m

Osservazione

Il bollettino è stato emesso 32 minuti fa, alle 05:50 UTC
Vento 11 kt da est/nord-est
Temperature 23°C
Umidità 73%
Pressione 1024 hPa
Visibilità 10 km o più
nessuna nube inferiore a 1500 m e nessun cumulonembo

METAR: EDDR 270550Z 06011KT CAVOK 23/18 Q1024 NOSIG

Ora: 08:22 (06:22 UTC)

Previsione

Il bollettino è stato emesso 1 ora e 22 minuti fa, alle 05:00 UTC
Previsione valida dal 27 alle 06 UTC al 28 alle 06 UTC
Vento 11 kt da nord/nord-est
Visibilità 10 km o più
nessuna nube inferiore a 1500 m e nessun cumulonembo

TAF: EDDR 270500Z 2706/2806 03011KT CAVOK

Osservazioni e previsioni meteorologiche di più di 4000 aeroporti (messaggi METAR e TAF).

Le stazioni disponibili sono rappresentate dai dischi gialli e rossi sulla carta.

Puntare il mouse per vedere il nome della stazione.

Clicca sopra per visualizzare le osservazioni e previsioni meteorologiche.

Per cambiare la mappa : fare clic sui pulsanti verdi con una croce nera per ingrandire, il pulsante verde con un trattino per diminuire, o sulla freccia verde per le mappe adiacenti.


METAR-TAF: